Time;durP1;ratioP1;P1;durP2;ratioP2;P2;SDS_P1;SDS_P2;PMS_P1;PMS_P2;Temp;Humidity;BMP_temperature;BMP_pressure;BME280_temperature;BME280_humidity;BME280_pressure;Samples;Min_cycle;Max_cycle;Signal;HPM_P1;HPM_P2
2022/11/04 00:01:21;;;;;;;7.80;6.00;;;;;;;10.59;100.00;99962.63;4984464;28;20755;-52
2022/11/04 00:03:48;;;;;;;10.30;6.20;;;;;;;10.72;100.00;99944.97;4979533;28;20230;-54
2022/11/04 00:06:14;;;;;;;10.03;5.53;;;;;;;10.70;100.00;99952.00;4976450;28;20238;-53
2022/11/04 00:08:41;;;;;;;8.53;6.23;;;;;;;10.97;100.00;99954.22;4984033;28;20665;-53
2022/11/04 00:13:51;;;;;;;7.70;6.40;;;;;;;10.77;100.00;99945.75;4986191;28;20253;-53
2022/11/04 00:19:03;;;;;;;8.27;5.83;;;;;;;10.82;100.00;99941.31;4977308;28;20252;-53
2022/11/04 00:29:55;;;;;;;13.57;6.83;;;;;;;10.66;100.00;99940.66;4969419;28;20238;-54
2022/11/04 00:35:08;;;;;;;8.63;5.70;;;;;;;10.45;100.00;99936.56;4976098;28;20241;-51
2022/11/04 00:37:36;;;;;;;12.10;7.10;;;;;;;10.72;100.00;99931.84;4974702;28;20629;-53
2022/11/04 00:40:03;;;;;;;11.60;6.23;;;;;;;10.71;100.00;99924.88;4971377;28;20711;-52
2022/11/04 00:42:30;;;;;;;9.77;6.40;;;;;;;10.67;100.00;99921.41;4973337;28;20323;-53
2022/11/04 00:44:56;;;;;;;9.20;6.20;;;;;;;10.58;100.00;99925.91;4976476;28;20747;-53
2022/11/04 00:47:24;;;;;;;8.63;6.50;;;;;;;10.72;100.00;99931.84;4981419;28;20772;-53
2022/11/04 00:49:50;;;;;;;8.83;6.47;;;;;;;10.40;100.00;99932.28;4985699;28;20237;-52
2022/11/04 00:52:17;;;;;;;9.23;6.30;;;;;;;10.27;100.00;99931.56;4977964;28;20249;-53
2022/11/04 00:54:43;;;;;;;9.17;8.10;;;;;;;10.24;100.00;99931.56;4975268;28;20260;-54
2022/11/04 00:57:10;;;;;;;10.40;6.63;;;;;;;10.14;100.00;99924.69;4984746;28;20861;-53
2022/11/04 00:59:37;;;;;;;11.57;7.20;;;;;;;10.37;100.00;99919.22;4981286;28;20241;-54
2022/11/04 01:02:03;;;;;;;10.20;6.47;;;;;;;10.62;100.00;99907.47;4971629;28;20231;-54
2022/11/04 01:04:31;;;;;;;9.20;6.67;;;;;;;10.60;100.00;99904.03;4983061;28;20234;-56
2022/11/04 01:06:58;;;;;;;7.87;6.33;;;;;;;10.60;100.00;99903.13;4977193;28;20251;-53
2022/11/04 01:09:24;;;;;;;11.27;7.07;;;;;;;10.48;100.00;99905.03;4979042;28;20238;-53
2022/11/04 01:11:51;;;;;;;8.90;7.63;;;;;;;10.39;100.00;99905.19;4976416;28;20245;-52
2022/11/04 01:14:18;;;;;;;15.07;6.93;;;;;;;10.20;100.00;99898.41;4981252;28;20237;-53
2022/11/04 01:16:45;;;;;;;13.37;7.67;;;;;;;10.23;100.00;99898.38;4978173;28;20238;-53
2022/11/04 01:19:12;;;;;;;11.33;6.90;;;;;;;10.36;100.00;99894.72;4977723;28;20229;-53
2022/11/04 01:21:39;;;;;;;9.93;7.47;;;;;;;10.18;100.00;99892.28;4979383;28;20229;-55
2022/11/04 01:24:06;;;;;;;11.43;8.40;;;;;;;10.16;100.00;99891.47;4987971;28;20607;-53
2022/11/04 01:26:33;;;;;;;10.17;6.20;;;;;;;10.25;100.00;99891.34;4974595;28;20273;-53
2022/11/04 01:28:59;;;;;;;12.53;7.00;;;;;;;9.96;100.00;99886.47;4978571;28;20751;-54
2022/11/04 01:31:27;;;;;;;9.17;6.90;;;;;;;10.02;100.00;99886.41;4977343;28;20262;-53
2022/11/04 01:33:54;;;;;;;11.93;8.00;;;;;;;10.26;100.00;99877.38;4971748;28;20237;-52
2022/11/04 01:36:22;;;;;;;8.63;6.93;;;;;;;10.27;100.00;99884.34;4974240;28;20340;-53
2022/11/04 01:38:51;;;;;;;12.47;7.63;;;;;;;10.14;100.00;99891.47;4978218;28;20900;-53
2022/11/04 01:41:19;;;;;;;7.70;6.50;;;;;;;10.35;100.00;99892.97;4976856;28;20788;-54
2022/11/04 01:43:49;;;;;;;9.13;6.77;;;;;;;10.15;100.00;99884.50;4979153;28;20234;-54
2022/11/04 01:46:28;;;;;;;9.93;7.47;;;;;;;10.00;100.00;99891.66;4976382;28;20234;-54
2022/11/04 01:49:00;;;;;;;13.17;8.00;;;;;;;9.71;100.00;99893.75;4984256;28;20261;-53
2022/11/04 01:51:27;;;;;;;8.63;6.97;;;;;;;9.69;100.00;99893.78;4982157;28;20237;-53
2022/11/04 01:53:56;;;;;;;11.00;7.67;;;;;;;9.53;100.00;99894.81;4986686;28;20248;-53
2022/11/04 01:56:24;;;;;;;15.43;7.30;;;;;;;9.62;100.00;99899.06;4978868;28;20227;-53
2022/11/04 01:58:53;;;;;;;8.93;7.60;;;;;;;9.55;100.00;99887.81;4973866;28;20602;-54
2022/11/04 02:01:20;;;;;;;11.43;7.53;;;;;;;9.68;100.00;99885.91;4979707;28;20221;-53
2022/11/04 02:03:49;;;;;;;10.73;7.37;;;;;;;9.47;100.00;99880.00;4978539;28;20234;-53
2022/11/04 02:06:17;;;;;;;12.30;7.93;;;;;;;9.62;100.00;99879.00;4985530;28;20314;-53
2022/11/04 02:08:45;;;;;;;13.47;7.83;;;;;;;9.51;100.00;99867.75;4980464;28;20248;-54
2022/11/04 02:12:48;;;;;;;10.37;7.97;;;;;;;9.64;100.00;99871.97;4985743;28;20756;-53
2022/11/04 02:13:59;;;;;;;10.63;7.47;;;;;;;9.72;100.00;99864.91;4977482;28;20296;-53
2022/11/04 02:16:34;;;;;;;10.13;8.40;;;;;;;9.87;100.00;99858.63;4984461;28;20381;-54
2022/11/04 02:19:16;;;;;;;9.83;7.17;;;;;;;10.05;100.00;99857.50;4975592;28;20332;-53
2022/11/04 02:22:04;;;;;;;8.33;6.70;;;;;;;10.20;100.00;99856.44;4975304;28;20244;-54
2022/11/04 02:24:46;;;;;;;8.33;7.20;;;;;;;10.23;100.00;99865.13;4977423;28;20241;-53
2022/11/04 02:27:23;;;;;;;12.77;7.90;;;;;;;10.14;100.00;99861.75;4977014;28;20274;-53
2022/11/04 02:30:01;;;;;;;9.17;6.60;;;;;;;10.07;100.00;99852.22;4974999;28;20317;-54
2022/11/04 02:32:34;;;;;;;10.73;6.80;;;;;;;10.18;100.00;99847.69;4979989;28;20329;-52
2022/11/04 02:35:04;;;;;;;9.03;6.73;;;;;;;10.29;100.00;99845.84;4978843;28;20325;-53
2022/11/04 02:37:37;;;;;;;10.93;7.10;;;;;;;10.52;100.00;99851.63;4978331;28;20229;-54
2022/11/04 02:40:11;;;;;;;9.27;7.93;;;;;;;10.29;100.00;99851.09;4981739;28;20235;-52
2022/11/04 02:42:43;;;;;;;11.43;7.20;;;;;;;10.11;100.00;99851.31;4972780;28;20237;-57
2022/11/04 02:45:14;;;;;;;10.53;7.27;;;;;;;10.54;100.00;99850.75;4982064;28;20783;-53
2022/11/04 02:47:45;;;;;;;10.83;7.53;;;;;;;10.58;100.00;99847.19;4972653;28;20266;-52
2022/11/04 02:50:14;;;;;;;10.30;7.27;;;;;;;10.83;100.00;99838.00;4975610;28;20233;-54
2022/11/04 02:52:45;;;;;;;8.27;7.30;;;;;;;10.48;100.00;99841.19;4984584;28;20717;-54
2022/11/04 02:55:15;;;;;;;8.90;7.07;;;;;;;10.48;100.00;99842.06;4982822;28;20641;-53
2022/11/04 02:57:45;;;;;;;8.83;6.93;;;;;;;10.24;100.00;99837.13;4985453;28;20724;-53
2022/11/04 03:00:15;;;;;;;8.60;6.90;;;;;;;10.03;100.00;99833.03;4976224;28;20238;-52
2022/11/04 03:02:45;;;;;;;11.27;7.70;;;;;;;10.44;100.00;99834.25;4973916;28;20228;-54
2022/11/04 03:05:14;;;;;;;12.97;7.47;;;;;;;10.38;100.00;99834.34;4979904;28;20230;-53
2022/11/04 03:07:44;;;;;;;10.70;6.90;;;;;;;10.55;100.00;99837.59;4985123;28;20665;-53
2022/11/04 03:10:14;;;;;;;9.37;7.40;;;;;;;10.30;100.00;99836.22;4974743;28;20245;-52
2022/11/04 03:12:45;;;;;;;10.80;7.53;;;;;;;9.84;100.00;99847.31;4978626;28;20241;-53
2022/11/04 03:15:17;;;;;;;11.40;6.37;;;;;;;10.00;100.00;99833.09;4974399;28;20709;-53
2022/11/04 03:18:00;;;;;;;9.87;7.47;;;;;;;9.99;100.00;99836.59;4980062;28;20292;-53
2022/11/04 03:20:28;;;;;;;12.03;8.20;;;;;;;9.95;100.00;99841.03;4973416;28;20322;-54
2022/11/04 03:22:58;;;;;;;10.27;7.00;;;;;;;10.20;100.00;99835.44;4975672;28;20289;-54
2022/11/04 03:25:27;;;;;;;12.00;7.50;;;;;;;10.33;100.00;99831.81;4976313;28;20280;-57
2022/11/04 03:28:01;;;;;;;10.10;7.37;;;;;;;10.44;100.00;99829.00;4975708;28;20234;-53
2022/11/04 03:30:35;;;;;;;9.87;7.10;;;;;;;10.23;100.00;99828.41;4980980;28;20264;-53
2022/11/04 03:33:06;;;;;;;7.63;6.70;;;;;;;10.50;100.00;99826.31;4975484;28;20229;-53
2022/11/04 03:35:33;;;;;;;13.10;7.77;;;;;;;10.58;100.00;99831.44;4983858;28;20321;-53
2022/11/04 03:38:00;;;;;;;8.27;6.47;;;;;;;10.49;100.00;99851.69;4983385;28;20288;-56
2022/11/04 03:40:27;;;;;;;11.13;7.70;;;;;;;10.16;100.00;99868.72;4981435;28;20715;-54
2022/11/04 03:42:57;;;;;;;10.70;7.73;;;;;;;9.94;100.00;99876.00;4968258;28;20295;-53
2022/11/04 03:45:24;;;;;;;10.57;7.40;;;;;;;9.93;100.00;99858.53;4973746;28;20353;-53
2022/11/04 03:47:53;;;;;;;9.70;7.27;;;;;;;9.83;100.00;99877.91;4980481;28;20601;-52
2022/11/04 03:50:26;;;;;;;13.30;8.87;;;;;;;9.56;100.00;99869.44;4975144;28;20316;-52
2022/11/04 03:52:53;;;;;;;11.20;7.40;;;;;;;9.63;100.00;99864.16;4979302;28;20329;-54
2022/11/04 03:55:20;;;;;;;13.33;7.50;;;;;;;9.59;100.00;99867.69;4982556;28;20237;-53
2022/11/04 03:57:53;;;;;;;11.57;7.77;;;;;;;9.70;100.00;99857.94;4986616;28;20661;-53
2022/11/04 04:00:21;;;;;;;10.20;7.73;;;;;;;9.91;100.00;99855.06;4976462;28;20226;-53
2022/11/04 04:03:05;;;;;;;10.97;7.70;;;;;;;9.96;100.00;99848.00;4985258;28;20234;-61
2022/11/04 04:05:33;;;;;;;9.73;7.50;;;;;;;9.91;100.00;99857.69;4974592;28;20859;-53
2022/11/04 04:08:11;;;;;;;9.53;8.33;;;;;;;9.93;100.00;99863.78;4977526;28;20292;-54
2022/11/04 04:10:42;;;;;;;10.23;7.73;;;;;;;9.93;100.00;99852.41;4986726;28;20337;-53
2022/11/04 04:13:29;;;;;;;12.07;7.50;;;;;;;9.91;100.00;99859.44;4975953;28;20254;-56
2022/11/04 04:15:59;;;;;;;13.33;7.97;;;;;;;9.90;100.00;99855.06;4938861;28;1165902;-54
2022/11/04 04:18:35;;;;;;;10.10;8.17;;;;;;;9.76;100.00;99863.13;4977540;28;20245;-53
2022/11/04 04:21:04;;;;;;;8.33;7.40;;;;;;;9.55;100.00;99865.09;4982659;28;20299;-52
2022/11/04 04:29:05;;;;;;;9.47;7.83;;;;;;;9.37;100.00;99862.69;4977012;28;20247;-52
2022/11/04 04:31:49;;;;;;;8.30;7.50;;;;;;;9.42;100.00;99850.38;4977317;28;20324;-53
2022/11/04 04:34:17;;;;;;;10.43;7.23;;;;;;;9.68;100.00;99857.94;4983046;28;20711;-60
2022/11/04 04:36:47;;;;;;;9.70;8.40;;;;;;;9.68;100.00;99847.47;4981849;28;20233;-57
2022/11/04 04:45:00;;;;;;;11.23;7.53;;;;;;;9.64;100.00;99840.53;4968485;28;20965;-53
2022/11/04 04:47:31;;;;;;;13.83;8.63;;;;;;;9.55;100.00;99845.91;4975816;28;20237;-52
2022/11/04 04:50:00;;;;;;;11.03;8.30;;;;;;;9.53;100.00;99831.94;4976206;28;20233;-53
2022/11/04 04:52:29;;;;;;;7.70;6.90;;;;;;;9.49;100.00;99838.09;4978020;28;20814;-53
2022/11/04 04:54:56;;;;;;;12.70;7.33;;;;;;;9.47;100.00;99840.72;4980760;28;20234;-53
2022/11/04 04:57:23;;;;;;;9.90;8.20;;;;;;;9.39;100.00;99855.66;4979933;28;20234;-53
2022/11/04 04:59:49;;;;;;;8.93;7.10;;;;;;;9.37;100.00;99846.97;4978555;28;20272;-54
2022/11/04 05:02:16;;;;;;;10.47;7.90;;;;;;;9.51;100.00;99850.31;4980845;28;20281;-53
2022/11/04 05:04:42;;;;;;;9.47;7.50;;;;;;;9.56;100.00;99858.09;4984693;28;20245;-59
2022/11/04 05:07:10;;;;;;;13.43;9.33;;;;;;;9.41;100.00;99859.13;4982029;28;20242;-59
2022/11/04 05:09:37;;;;;;;11.50;8.10;;;;;;;9.53;100.00;99853.75;4972630;28;20236;-53
2022/11/04 05:12:03;;;;;;;9.23;8.23;;;;;;;9.45;100.00;99860.84;4982049;28;20241;-52
2022/11/04 05:14:30;;;;;;;11.30;8.20;;;;;;;9.40;100.00;99862.63;4974249;28;20402;-52
2022/11/04 05:16:57;;;;;;;9.60;7.63;;;;;;;9.44;100.00;99866.06;4977161;28;20241;-52
2022/11/04 05:19:24;;;;;;;11.60;8.80;;;;;;;9.40;100.00;99873.09;4984683;28;20704;-54
2022/11/04 05:21:51;;;;;;;10.83;8.73;;;;;;;9.35;100.00;99874.03;4979469;28;20237;-53
2022/11/04 05:24:19;;;;;;;13.17;8.30;;;;;;;9.37;100.00;99867.91;4973647;28;20222;-52
2022/11/04 05:26:46;;;;;;;10.07;8.57;;;;;;;9.38;100.00;99869.66;4983173;28;20252;-53
2022/11/04 05:29:13;;;;;;;8.40;7.47;;;;;;;9.65;100.00;99876.34;4980233;28;20225;-54
2022/11/04 05:31:40;;;;;;;8.73;7.93;;;;;;;9.66;100.00;99871.97;4980129;28;20708;-53
2022/11/04 05:34:09;;;;;;;12.53;8.80;;;;;;;9.61;100.00;99877.25;4974664;28;20661;-53
2022/11/04 05:36:36;;;;;;;10.90;7.67;;;;;;;9.52;100.00;99878.22;4981982;28;20238;-53
2022/11/04 05:39:04;;;;;;;9.13;7.50;;;;;;;9.62;100.00;99883.34;4987372;28;20328;-53
2022/11/04 05:41:32;;;;;;;9.47;7.80;;;;;;;9.70;100.00;99887.63;4982724;28;20721;-53
2022/11/04 05:44:00;;;;;;;9.43;8.33;;;;;;;9.64;100.00;99897.31;4975505;28;20751;-53
2022/11/04 05:46:27;;;;;;;8.73;7.80;;;;;;;9.73;100.00;99897.22;4982271;28;20742;-53
2022/11/04 05:48:54;;;;;;;9.97;8.67;;;;;;;9.81;100.00;99895.38;4978151;28;20238;-53
2022/11/04 05:51:22;;;;;;;9.53;8.53;;;;;;;9.83;100.00;99901.50;4979333;28;20238;-54
2022/11/04 05:53:49;;;;;;;12.27;9.60;;;;;;;9.76;100.00;99907.69;4985512;28;20265;-53
2022/11/04 05:56:16;;;;;;;9.83;7.77;;;;;;;9.79;100.00;99905.91;4984971;28;20737;-53
2022/11/04 05:58:44;;;;;;;12.27;8.30;;;;;;;9.62;100.00;99909.56;4982315;28;20230;-52
2022/11/04 06:01:12;;;;;;;10.27;7.73;;;;;;;9.51;100.00;99910.56;4974456;28;20234;-54
2022/11/04 06:03:38;;;;;;;11.07;8.80;;;;;;;9.47;100.00;99911.44;4984968;28;20244;-54
2022/11/04 06:06:05;;;;;;;11.63;8.53;;;;;;;9.42;100.00;99913.25;4984875;28;20245;-54
2022/11/04 06:08:32;;;;;;;10.63;8.67;;;;;;;9.38;100.00;99919.41;4982654;28;20234;-54
2022/11/04 06:10:59;;;;;;;11.47;7.97;;;;;;;9.35;100.00;99922.06;4985491;28;20719;-53
2022/11/04 06:13:26;;;;;;;13.67;9.67;;;;;;;9.30;100.00;99926.47;4979635;28;20888;-53
2022/11/04 06:15:54;;;;;;;10.50;9.20;;;;;;;9.36;100.00;99926.41;4979631;28;21007;-53
2022/11/04 06:18:21;;;;;;;11.83;8.53;;;;;;;9.38;100.00;99935.13;4983107;28;20226;-54
2022/11/04 06:20:48;;;;;;;11.27;9.97;;;;;;;9.38;100.00;99934.28;4988109;28;20421;-53
2022/11/04 06:23:15;;;;;;;13.70;9.70;;;;;;;9.34;100.00;99943.91;4984299;28;20237;-53
2022/11/04 06:25:42;;;;;;;11.43;9.07;;;;;;;9.39;100.00;99939.47;4985840;28;20331;-54
2022/11/04 06:28:09;;;;;;;13.13;10.43;;;;;;;9.41;100.00;99942.97;4977728;28;20261;-54
2022/11/04 06:30:36;;;;;;;12.77;9.43;;;;;;;9.38;100.00;99936.91;4983679;28;20732;-54
2022/11/04 06:33:04;;;;;;;9.87;8.87;;;;;;;9.47;100.00;99939.41;4979618;28;20241;-53
2022/11/04 06:35:32;;;;;;;11.53;9.77;;;;;;;9.38;100.00;99940.38;4988238;28;20280;-56
2022/11/04 06:37:58;;;;;;;13.47;10.77;;;;;;;9.34;100.00;99949.16;4985438;28;20236;-54
2022/11/04 06:40:26;;;;;;;13.77;9.47;;;;;;;9.45;100.00;99960.41;4981615;28;20230;-53
2022/11/04 06:42:53;;;;;;;13.73;11.63;;;;;;;9.39;100.00;99954.34;4975545;28;20233;-53
2022/11/04 06:45:20;;;;;;;15.63;10.40;;;;;;;9.37;100.00;99961.31;4976724;28;20231;-53
2022/11/04 06:47:47;;;;;;;13.67;10.33;;;;;;;9.36;100.00;99970.09;4984025;28;20230;-53
2022/11/04 06:50:15;;;;;;;12.20;10.90;;;;;;;9.37;100.00;99966.56;4974823;28;20713;-53
2022/11/04 06:52:42;;;;;;;12.33;10.77;;;;;;;9.43;100.00;99966.53;4983166;28;20233;-54
2022/11/04 06:55:10;;;;;;;13.10;10.03;;;;;;;9.42;100.00;99970.91;4978658;28;20299;-53
2022/11/04 06:57:37;;;;;;;14.33;10.83;;;;;;;9.42;100.00;99970.03;4976401;28;20230;-53
2022/11/04 07:00:04;;;;;;;16.10;10.80;;;;;;;9.40;100.00;99977.88;4974366;28;20238;-55
2022/11/04 07:02:31;;;;;;;18.23;11.83;;;;;;;9.45;100.00;99976.13;4975551;28;20234;-53
2022/11/04 07:04:58;;;;;;;13.10;11.43;;;;;;;9.38;100.00;99984.91;4976458;28;20237;-53
2022/11/04 07:07:29;;;;;;;17.63;10.60;;;;;;;9.37;100.00;99982.28;4977871;28;20230;-54
2022/11/04 07:09:56;;;;;;;20.37;12.77;;;;;;;9.31;100.00;99993.72;4977524;28;20238;-54
2022/11/04 07:12:23;;;;;;;13.50;12.07;;;;;;;9.28;100.00;99988.47;4977992;28;20819;-54
2022/11/04 07:14:51;;;;;;;17.07;13.07;;;;;;;9.21;100.00;99992.91;4975365;28;20258;-55
2022/11/04 07:17:18;;;;;;;15.97;13.13;;;;;;;9.15;100.00;99984.22;4967779;28;20250;-54
2022/11/04 07:19:45;;;;;;;16.53;12.80;;;;;;;9.14;100.00;99990.34;4982179;28;20238;-56
2022/11/04 07:22:11;;;;;;;14.30;12.33;;;;;;;9.10;100.00;99984.25;4982538;28;20230;-56
2022/11/04 07:24:40;;;;;;;14.93;13.30;;;;;;;9.08;100.00;99986.00;4980203;28;20226;-56
2022/11/04 07:27:07;;;;;;;15.07;12.83;;;;;;;9.01;100.00;99973.84;4980700;28;20234;-56
2022/11/04 07:29:33;;;;;;;14.37;11.57;;;;;;;8.99;100.00;99976.47;4973853;28;20238;-56
2022/11/04 07:32:00;;;;;;;13.63;11.70;;;;;;;9.05;100.00;99980.78;4974340;28;20246;-55
2022/11/04 07:34:27;;;;;;;16.73;13.00;;;;;;;9.08;100.00;99965.91;4973100;28;20744;-55
2022/11/04 07:36:54;;;;;;;12.63;11.33;;;;;;;9.13;100.00;99970.28;4974994;28;20234;-55
2022/11/04 07:39:21;;;;;;;14.67;11.60;;;;;;;9.18;100.00;99979.81;4972994;28;20936;-54
2022/11/04 07:41:49;;;;;;;14.50;12.07;;;;;;;9.24;100.00;99974.53;4978156;28;20247;-55
2022/11/04 07:44:17;;;;;;;16.13;12.13;;;;;;;9.29;100.00;99975.38;4978434;28;20601;-55
2022/11/04 07:46:44;;;;;;;12.87;10.80;;;;;;;9.33;100.00;99984.94;4975829;28;20234;-55
2022/11/04 07:49:10;;;;;;;13.40;11.97;;;;;;;9.38;100.00;99974.44;4977939;28;20234;-57
2022/11/04 07:51:37;;;;;;;15.17;12.23;;;;;;;9.38;100.00;99974.44;4969193;28;20238;-55
2022/11/04 07:54:04;;;;;;;17.60;11.90;;;;;;;9.43;100.00;99972.63;4975813;28;20242;-55
2022/11/04 07:56:31;;;;;;;14.77;12.70;;;;;;;9.43;100.00;99977.88;4973997;28;20317;-55
2022/11/04 07:58:59;;;;;;;14.03;11.47;;;;;;;9.47;100.00;99974.34;4981819;28;20227;-53
2022/11/04 08:01:26;;;;;;;11.17;10.10;;;;;;;9.50;100.00;99963.84;4978235;28;20234;-54
2022/11/04 08:03:53;;;;;;;12.57;10.47;;;;;;;9.53;100.00;99961.19;4981828;28;20317;-57
2022/11/04 08:06:22;;;;;;;15.03;11.50;;;;;;;9.59;100.00;99956.78;4980497;28;20237;-55
2022/11/04 08:08:49;;;;;;;14.07;12.33;;;;;;;9.64;100.00;99966.31;4977717;28;20226;-54
2022/11/04 08:11:17;;;;;;;14.43;11.07;;;;;;;9.69;100.00;99968.94;4980133;28;20234;-53
2022/11/04 08:13:45;;;;;;;15.77;12.00;;;;;;;9.71;100.00;99962.75;4981151;28;20237;-55
2022/11/04 08:16:15;;;;;;;13.13;11.23;;;;;;;9.77;100.00;99959.22;4977400;28;20234;-54
2022/11/04 08:18:42;;;;;;;14.23;11.83;;;;;;;9.75;100.00;99963.59;4983679;28;20244;-54
2022/11/04 08:21:09;;;;;;;15.00;11.37;;;;;;;9.84;100.00;99965.28;4983112;28;21005;-53
2022/11/04 08:23:36;;;;;;;15.30;12.40;;;;;;;9.85;100.00;99965.25;4981027;28;20226;-54
2022/11/04 08:26:07;;;;;;;13.27;11.37;;;;;;;10.00;100.00;99982.56;4981085;28;20237;-53
2022/11/04 08:28:34;;;;;;;14.30;11.93;;;;;;;9.95;100.00;99987.88;4982356;28;20320;-53
2022/11/04 08:31:02;;;;;;;12.47;11.27;;;;;;;9.97;100.00;99990.50;4979727;28;20242;-53
2022/11/04 08:33:33;;;;;;;14.70;13.13;;;;;;;9.98;100.00;99985.22;4975137;28;20744;-53
2022/11/04 08:36:03;;;;;;;14.67;13.17;;;;;;;10.01;100.00;99987.81;4980329;28;20248;-54
2022/11/04 08:38:30;;;;;;;11.90;9.57;;;;;;;10.01;100.00;99981.69;4966357;28;20231;-51
2022/11/04 08:40:57;;;;;;;10.30;9.30;;;;;;;10.07;100.00;99992.09;4979892;28;20237;-54
2022/11/04 08:43:24;;;;;;;14.83;10.77;;;;;;;10.06;100.00;100000.00;4979464;28;20224;-53
2022/11/04 08:45:52;;;;;;;13.53;10.87;;;;;;;10.13;100.00;99997.28;4980393;28;20314;-53
2022/11/04 08:48:19;;;;;;;11.37;9.33;;;;;;;10.18;100.00;99999.84;4980802;28;20328;-53
2022/11/04 08:50:50;;;;;;;10.97;9.23;;;;;;;10.22;100.00;100012.06;4981580;28;20228;-53
2022/11/04 08:53:17;;;;;;;15.17;10.53;;;;;;;10.25;100.00;100010.31;4975761;28;20698;-53
2022/11/04 08:55:44;;;;;;;16.57;9.87;;;;;;;10.26;100.00;100017.28;4970120;28;20242;-54
2022/11/04 08:58:11;;;;;;;11.60;9.00;;;;;;;10.27;100.00;100010.28;4978483;28;20285;-52
2022/11/04 09:00:38;;;;;;;13.17;8.43;;;;;;;10.28;100.00;100009.38;4979184;28;20233;-52
2022/11/04 09:03:05;;;;;;;11.00;9.37;;;;;;;10.31;100.00;100006.72;4973922;28;20233;-52
2022/11/04 09:05:32;;;;;;;10.07;8.63;;;;;;;10.23;100.00;100011.16;4984630;28;20685;-53
2022/11/04 09:08:01;;;;;;;10.87;8.80;;;;;;;10.24;100.00;100003.28;4970555;28;20322;-53
2022/11/04 09:10:27;;;;;;;11.73;8.50;;;;;;;10.22;100.00;99998.94;4971958;28;20237;-53
2022/11/04 09:12:54;;;;;;;9.10;7.83;;;;;;;10.20;100.00;99995.47;4972722;28;20241;-53
2022/11/04 09:15:21;;;;;;;11.07;8.47;;;;;;;10.23;100.00;99980.56;4971152;28;20246;-53
2022/11/04 09:17:48;;;;;;;8.53;7.63;;;;;;;10.22;100.00;99978.81;4976128;28;20234;-53
2022/11/04 09:20:15;;;;;;;8.30;7.37;;;;;;;10.24;100.00;99978.78;4974501;28;20230;-53
2022/11/04 09:22:41;;;;;;;9.20;7.90;;;;;;;10.28;100.00;99975.28;4983745;28;20229;-53
2022/11/04 09:25:10;;;;;;;10.43;8.43;;;;;;;10.26;100.00;99961.31;4979527;28;20342;-54
2022/11/04 09:27:37;;;;;;;9.23;8.07;;;;;;;10.29;100.00;99948.19;4980648;28;20312;-53
2022/11/04 09:30:04;;;;;;;11.77;8.13;;;;;;;10.25;100.00;99955.22;4968113;28;20285;-54
2022/11/04 09:32:31;;;;;;;10.50;8.37;;;;;;;10.27;100.00;99963.06;4979967;28;20237;-52
2022/11/04 09:34:58;;;;;;;9.83;8.10;;;;;;;10.30;100.00;99965.66;4978511;28;20229;-53
2022/11/04 09:37:24;;;;;;;11.87;9.40;;;;;;;10.30;100.00;99960.41;4978626;28;20234;-54
2022/11/04 09:39:51;;;;;;;10.33;8.43;;;;;;;10.32;100.00;99963.88;4973429;28;20230;-53
2022/11/04 09:42:34;;;;;;;9.23;8.10;;;;;;;10.32;100.00;99961.25;4982879;28;20280;-54
2022/11/04 09:45:03;;;;;;;9.97;8.13;;;;;;;10.33;100.00;99957.75;4976147;28;20238;-54
2022/11/04 09:47:32;;;;;;;11.47;8.73;;;;;;;10.39;100.00;99962.03;4974415;28;20228;-54
2022/11/04 09:50:00;;;;;;;9.07;7.53;;;;;;;10.39;100.00;99972.53;4976808;28;20795;-53
2022/11/04 09:52:31;;;;;;;7.93;7.10;;;;;;;10.43;100.00;99969.00;4981896;28;20240;-54
2022/11/04 09:55:01;;;;;;;9.97;8.07;;;;;;;10.45;100.00;99972.44;4981865;28;20242;-53
2022/11/04 09:57:29;;;;;;;10.37;7.63;;;;;;;10.43;100.00;99972.47;4979742;28;20231;-53
2022/11/04 09:59:55;;;;;;;12.00;8.23;;;;;;;10.46;100.00;99969.81;4965155;28;20227;-53
2022/11/04 10:02:44;;;;;;;14.33;9.90;;;;;;;10.51;100.00;99972.38;4976702;28;20222;-54
2022/11/04 10:05:25;;;;;;;13.57;10.43;;;;;;;10.47;100.00;99982.06;4986243;28;20723;-53
2022/11/04 10:08:17;;;;;;;14.10;10.03;;;;;;;10.46;100.00;100009.19;4984228;28;20230;-52
2022/11/04 10:10:49;;;;;;;10.33;9.00;;;;;;;10.52;100.00;100026.59;4981654;28;20233;-54
2022/11/04 10:13:23;;;;;;;11.32;9.48;;;;;;;10.50;100.00;100028.41;4982194;28;20230;-54
2022/11/04 10:16:12;;;;;;;12.67;8.87;;;;;;;10.46;100.00;100038.06;4981162;28;20238;-53
2022/11/04 10:18:49;;;;;;;10.40;8.77;;;;;;;10.49;100.00;100027.53;4978904;28;20257;-53
2022/11/04 10:21:24;;;;;;;8.57;7.77;;;;;;;10.47;100.00;100016.16;4981388;28;20827;-53
2022/11/04 10:24:00;;;;;;;10.63;8.33;;;;;;;10.49;100.00;100011.78;4983941;28;20267;-54
2022/11/04 10:26:31;;;;;;;10.13;8.33;;;;;;;10.48;100.00;99996.91;4980211;28;20238;-56
2022/11/04 10:29:03;;;;;;;11.73;9.13;;;;;;;10.42;100.00;99996.97;4976957;28;20241;-53
2022/11/04 10:31:29;;;;;;;14.33;9.90;;;;;;;10.40;100.00;100011.88;4982194;28;20226;-53
2022/11/04 10:33:59;;;;;;;11.33;9.03;;;;;;;10.38;100.00;100023.28;4985047;28;20241;-55
2022/11/04 10:36:26;;;;;;;10.17;8.00;;;;;;;10.39;100.00;100036.41;4984246;28;20670;-56
2022/11/04 10:38:54;;;;;;;10.00;8.97;;;;;;;10.38;100.00;100045.13;4985151;28;20757;-54
2022/11/04 10:41:26;;;;;;;9.93;8.93;;;;;;;10.35;100.00;100047.78;4987155;28;20239;-53
2022/11/04 10:43:57;;;;;;;8.50;7.67;;;;;;;10.36;100.00;100046.06;4983361;28;20238;-54
2022/11/04 10:46:36;;;;;;;8.60;7.70;;;;;;;10.34;100.00;100047.81;4982129;28;20234;-52
2022/11/04 10:49:05;;;;;;;10.27;7.63;;;;;;;10.31;100.00;100048.72;4986477;28;20236;-52
2022/11/04 10:51:31;;;;;;;10.00;8.73;;;;;;;10.31;100.00;100048.72;4986430;28;20226;-53
2022/11/04 10:53:59;;;;;;;8.90;8.00;;;;;;;10.32;100.00;100044.31;4983642;28;20257;-53
2022/11/04 10:56:33;;;;;;;9.00;8.10;;;;;;;10.33;100.00;100025.97;4980793;28;20231;-53
2022/11/04 10:59:09;;;;;;;9.10;8.20;;;;;;;10.31;100.00;100016.34;4979779;28;20252;-53
2022/11/04 11:01:37;;;;;;;10.20;8.13;;;;;;;10.28;100.00;100022.50;4978368;28;20241;-54
2022/11/04 11:04:07;;;;;;;9.53;8.23;;;;;;;10.26;100.00;100034.78;4982226;28;20235;-54
2022/11/04 11:06:35;;;;;;;8.50;7.70;;;;;;;10.35;100.00;100047.78;4979291;28;20243;-53
2022/11/04 11:09:13;;;;;;;8.90;8.00;;;;;;;10.31;100.00;100059.19;4984843;28;20699;-53
2022/11/04 11:11:46;;;;;;;9.67;8.67;;;;;;;10.27;100.00;100061.00;4980107;28;20237;-53
2022/11/04 11:14:20;;;;;;;10.73;7.67;;;;;;;10.28;100.00;100059.22;4978354;28;20602;-53
2022/11/04 11:16:48;;;;;;;8.73;7.93;;;;;;;10.30;100.00;100061.84;4979126;28;20739;-54
2022/11/04 11:19:20;;;;;;;9.17;7.77;;;;;;;10.27;100.00;100070.63;4981909;28;20780;-53
2022/11/04 11:21:48;;;;;;;7.53;6.83;;;;;;;10.32;100.00;100078.44;4980457;28;20724;-53
2022/11/04 11:24:19;;;;;;;10.73;8.83;;;;;;;10.28;100.00;100077.59;4984998;28;20237;-53
2022/11/04 11:26:48;;;;;;;10.63;8.40;;;;;;;10.28;100.00;100085.47;4983354;28;20230;-53
2022/11/04 11:29:20;;;;;;;7.87;7.23;;;;;;;10.29;100.00;100086.38;4981404;28;20230;-53
2022/11/04 11:31:49;;;;;;;8.27;7.53;;;;;;;10.35;100.00;100078.41;4977514;28;20245;-52
2022/11/04 11:34:19;;;;;;;8.53;7.40;;;;;;;10.37;100.00;100095.88;4981133;28;20225;-52
2022/11/04 11:36:46;;;;;;;9.40;7.83;;;;;;;10.38;100.00;100113.34;4972983;28;20239;-52
2022/11/04 11:39:18;;;;;;;9.40;7.33;;;;;;;10.35;100.00;100107.28;4976059;28;20250;-53
2022/11/04 11:41:51;;;;;;;8.27;7.47;;;;;;;10.33;100.00;100099.44;4981393;28;20245;-53
2022/11/04 11:44:22;;;;;;;8.43;7.63;;;;;;;10.34;100.00;100110.78;4984539;28;20240;-54
2022/11/04 11:46:54;;;;;;;8.33;7.60;;;;;;;10.31;100.00;100111.69;4979559;28;20269;-53
2022/11/04 11:49:27;;;;;;;7.60;6.90;;;;;;;10.33;100.00;100104.69;4979821;28;20230;-53
2022/11/04 11:51:54;;;;;;;9.40;8.40;;;;;;;10.31;100.00;100098.56;4984259;28;20379;-53
2022/11/04 11:54:23;;;;;;;9.33;8.00;;;;;;;10.32;100.00;100096.81;4980386;28;20231;-54
2022/11/04 11:56:51;;;;;;;9.83;8.83;;;;;;;10.27;100.00;100102.09;4980993;28;20238;-53
2022/11/04 11:59:26;;;;;;;8.13;7.33;;;;;;;10.35;100.00;100097.63;4979817;28;20797;-53